createdAt,value
2023-03-17T00:02:57.356Z,99886.63
2023-03-17T00:07:00.533Z,99876.75
2023-03-17T00:11:05.108Z,99878.44
2023-03-17T00:15:10.223Z,99872.38
2023-03-17T00:19:17.391Z,99878.25
2023-03-17T00:23:22.877Z,99884.56
2023-03-17T00:27:28.303Z,99884.50
2023-03-17T00:31:32.710Z,99880.72
2023-03-17T00:35:35.797Z,99866.06
2023-03-17T00:39:39.597Z,99855.16
2023-03-17T00:43:44.035Z,99847.78
2023-03-17T00:47:49.267Z,99842.75
2023-03-17T00:51:53.605Z,99834.59
2023-03-17T00:55:58.705Z,99817.16
2023-03-17T01:00:03.974Z,99816.13
2023-03-17T01:04:07.010Z,99816.50
2023-03-17T01:08:10.576Z,99797.56
2023-03-17T01:12:14.603Z,99785.44
2023-03-17T01:16:19.068Z,99782.88
2023-03-17T01:20:24.001Z,99782.88
2023-03-17T01:24:28.559Z,99772.69
2023-03-17T01:28:31.616Z,99775.78
2023-03-17T01:32:36.121Z,99780.44
2023-03-17T01:36:39.131Z,99785.25
2023-03-17T01:40:45.295Z,99777.06
2023-03-17T01:44:59.616Z,99783.78
2023-03-17T01:49:16.063Z,99789.91
2023-03-17T01:53:21.623Z,99804.84
2023-03-17T01:57:29.641Z,99806.56
2023-03-17T02:01:38.743Z,99801.97
2023-03-17T02:05:44.317Z,99782.28
2023-03-17T02:09:47.517Z,99781.03
2023-03-17T02:13:50.833Z,99777.25
2023-03-17T02:17:54.275Z,99777.91
2023-03-17T02:21:59.734Z,99769.56
2023-03-17T02:26:04.120Z,99776.91
2023-03-17T02:30:09.408Z,99782.41
2023-03-17T02:34:12.552Z,99776.94
2023-03-17T02:38:17.462Z,99769.44
2023-03-17T02:42:21.731Z,99748.50
2023-03-17T02:46:25.076Z,99748.06
2023-03-17T02:50:30.459Z,99758.13
2023-03-17T02:54:35.292Z,99756.88
2023-03-17T02:58:38.469Z,99775.72
2023-03-17T03:02:42.648Z,99776.34
2023-03-17T03:06:46.023Z,99769.25
2023-03-17T03:10:50.765Z,99768.63
2023-03-17T03:14:53.790Z,99745.16
2023-03-17T03:18:56.926Z,99742.84
2023-03-17T03:22:59.982Z,99733.00
2023-03-17T03:27:04.571Z,99735.50
2023-03-17T03:31:08.142Z,99743.25
2023-03-17T03:35:11.640Z,99728.19
2023-03-17T03:39:14.692Z,99748.94
2023-03-17T03:43:23.470Z,99757.28
2023-03-17T03:47:27.044Z,99754.38
2023-03-17T03:51:30.541Z,99759.38
2023-03-17T03:55:33.544Z,99763.56
2023-03-17T03:59:38.158Z,99760.66
2023-03-17T04:03:41.331Z,99764.41
2023-03-17T04:07:44.384Z,99767.38
2023-03-17T04:11:47.549Z,99769.03
2023-03-17T04:15:52.133Z,99769.84
2023-03-17T04:19:55.202Z,99758.13
2023-03-17T04:23:58.203Z,99758.53
2023-03-17T04:28:01.271Z,99755.19
2023-03-17T04:32:06.129Z,99752.25
2023-03-17T04:36:14.533Z,99743.00
2023-03-17T04:40:19.517Z,99748.69
2023-03-17T04:44:22.624Z,99747.03
2023-03-17T04:48:27.074Z,99753.09
2023-03-17T04:52:30.237Z,99758.94
2023-03-17T04:56:33.412Z,99769.44
2023-03-17T05:00:38.902Z,99770.50
2023-03-17T05:04:45.196Z,99775.94
2023-03-17T05:08:48.398Z,99767.16
2023-03-17T05:12:52.004Z,99764.84
2023-03-17T05:16:55.028Z,99765.03
2023-03-17T05:20:59.781Z,99770.28
2023-03-17T05:25:02.818Z,99770.28
2023-03-17T05:29:05.886Z,99755.84
2023-03-17T05:33:08.874Z,99742.88
2023-03-17T05:37:14.199Z,99755.19
2023-03-17T05:41:17.882Z,99757.31
2023-03-17T05:45:21.041Z,99750.81
2023-03-17T05:49:24.560Z,99749.34
2023-03-17T05:53:29.694Z,99750.63
2023-03-17T05:57:32.799Z,99748.91
2023-03-17T06:01:36.330Z,99752.50
2023-03-17T06:05:39.387Z,99743.91
2023-03-17T06:09:43.771Z,99734.28
2023-03-17T06:13:46.997Z,99733.84
2023-03-17T06:17:50.023Z,99737.81
2023-03-17T06:21:53.310Z,99735.91
2023-03-17T06:25:57.891Z,99748.47
2023-03-17T06:30:01.175Z,99742.16
2023-03-17T06:34:04.259Z,99751.16
2023-03-17T06:38:07.389Z,99741.25
2023-03-17T06:42:12.616Z,99749.19
2023-03-17T06:46:15.851Z,99762.97
2023-03-17T06:50:19.176Z,99765.47
2023-03-17T06:54:24.672Z,99757.06
2023-03-17T06:58:29.428Z,99758.69
2023-03-17T07:02:32.440Z,99769.50
2023-03-17T07:06:35.447Z,99766.06
2023-03-17T07:10:38.507Z,99768.09
2023-03-17T07:14:42.918Z,99778.31
2023-03-17T07:18:46.290Z,99764.13
2023-03-17T07:22:49.407Z,99760.53
2023-03-17T07:26:52.900Z,99759.81
2023-03-17T07:30:58.030Z,99759.84
2023-03-17T07:35:01.201Z,99758.28
2023-03-17T07:39:05.264Z,99756.97
2023-03-17T07:43:08.438Z,99751.84
2023-03-17T07:47:13.384Z,99747.59
2023-03-17T07:51:19.200Z,99743.50
2023-03-17T07:55:22.345Z,99747.09
2023-03-17T07:59:25.455Z,99759.25
2023-03-17T08:03:30.653Z,99763.16
2023-03-17T08:07:33.685Z,99762.81
2023-03-17T08:11:37.860Z,99759.88
2023-03-17T08:15:41.065Z,99757.31
2023-03-17T08:19:45.565Z,99775.94
2023-03-17T08:23:48.773Z,99787.75
2023-03-17T08:27:52.090Z,99776.34
2023-03-17T08:31:55.316Z,99768.28
2023-03-17T08:36:00.294Z,99774.97
2023-03-17T08:40:03.727Z,99761.63
2023-03-17T08:44:08.841Z,99765.09
2023-03-17T08:48:11.873Z,99754.38
2023-03-17T08:52:16.355Z,99742.75
2023-03-17T08:56:19.446Z,99747.94
2023-03-17T09:00:23.570Z,99754.78
2023-03-17T09:04:28.058Z,99758.84
2023-03-17T09:08:32.963Z,99750.91
2023-03-17T09:12:36.079Z,99754.09
2023-03-17T09:16:39.150Z,99753.69
2023-03-17T09:20:42.448Z,99769.13
2023-03-17T09:24:47.207Z,99774.38
2023-03-17T09:28:50.203Z,99775.38
2023-03-17T09:32:53.869Z,99767.06
2023-03-17T09:36:57.512Z,99765.53
2023-03-17T09:41:23.959Z,99759.63
2023-03-17T09:45:34.728Z,99772.91
2023-03-17T09:49:44.795Z,99774.19
2023-03-17T09:53:52.984Z,99760.13
2023-03-17T09:57:58.896Z,99767.75
2023-03-17T10:02:02.546Z,99782.63
2023-03-17T10:06:36.152Z,99778.81
2023-03-17T10:10:46.750Z,99785.22
2023-03-17T10:14:59.908Z,99779.53
2023-03-17T10:19:11.249Z,99789.19
2023-03-17T10:23:18.882Z,99775.53
2023-03-17T10:27:22.540Z,99772.06
2023-03-17T10:31:33.291Z,99763.00
2023-03-17T10:35:39.608Z,99753.34
2023-03-17T10:39:47.164Z,99755.88
2023-03-17T10:43:51.915Z,99743.66
2023-03-17T10:47:58.582Z,99754.66
2023-03-17T10:52:01.649Z,99762.56
2023-03-17T10:56:10.634Z,99752.94
2023-03-17T11:00:19.969Z,99747.03
2023-03-17T11:04:37.451Z,99743.25
2023-03-17T11:08:42.635Z,99742.69
2023-03-17T11:12:45.964Z,99737.44
2023-03-17T11:16:55.448Z,99732.75
2023-03-17T11:21:02.610Z,99729.31
2023-03-17T11:25:11.538Z,99718.75
2023-03-17T11:29:28.782Z,99718.22
2023-03-17T11:33:40.464Z,99704.97
2023-03-17T11:38:01.126Z,99717.22
2023-03-17T11:42:12.432Z,99708.38
2023-03-17T11:46:21.286Z,99708.75
2023-03-17T11:50:34.780Z,99712.34
2023-03-17T11:54:48.202Z,99707.66
2023-03-17T11:58:56.689Z,99705.41
2023-03-17T12:03:08.686Z,99707.50
2023-03-17T12:07:20.794Z,99702.19
2023-03-17T12:11:29.192Z,99694.97
2023-03-17T12:15:36.251Z,99690.50
2023-03-17T12:19:45.386Z,99690.78
2023-03-17T12:23:51.193Z,99689.91
2023-03-17T12:28:02.170Z,99687.09
2023-03-17T12:32:09.467Z,99687.41
2023-03-17T12:36:17.004Z,99671.81
2023-03-17T12:40:25.254Z,99669.72
2023-03-17T12:44:45.716Z,99673.59
2023-03-17T12:49:12.661Z,99664.22
2023-03-17T12:53:31.198Z,99648.75
2023-03-17T12:57:41.904Z,99651.03
2023-03-17T13:01:54.353Z,99656.72
2023-03-17T13:06:02.163Z,99651.72
2023-03-17T13:10:40.214Z,99643.50
2023-03-17T13:14:46.005Z,99639.97
2023-03-17T13:18:51.294Z,99658.94
2023-03-17T13:23:05.066Z,99651.16
2023-03-17T13:27:13.006Z,99638.47
2023-03-17T13:31:34.003Z,99643.22
2023-03-17T13:35:47.778Z,99649.53
2023-03-17T13:40:18.575Z,99647.22
2023-03-17T13:44:33.623Z,99646.94
2023-03-17T13:48:38.599Z,99647.06
2023-03-17T13:52:49.569Z,99641.66
2023-03-17T13:56:54.314Z,99624.22
2023-03-17T14:01:01.056Z,99618.84
2023-03-17T14:05:07.517Z,99606.16
2023-03-17T14:09:26.805Z,99612.91
2023-03-17T14:13:35.477Z,99604.22
2023-03-17T14:17:44.895Z,99597.44
2023-03-17T14:21:48.546Z,99587.16
2023-03-17T14:25:55.930Z,99598.94
2023-03-17T14:30:07.136Z,99605.34
2023-03-17T14:34:14.793Z,99601.47
2023-03-17T14:38:20.693Z,99603.91
2023-03-17T14:42:29.277Z,99597.56
2023-03-17T14:46:34.213Z,99598.06
2023-03-17T14:50:37.274Z,99585.44
2023-03-17T14:54:40.454Z,99584.88
2023-03-17T14:58:47.929Z,99598.81
2023-03-17T15:02:55.934Z,99589.78
2023-03-17T15:07:00.495Z,99584.16
2023-03-17T15:11:05.800Z,99580.00
2023-03-17T15:15:25.873Z,99582.97
2023-03-17T15:19:31.100Z,99577.84
2023-03-17T15:23:41.502Z,99582.28
2023-03-17T15:27:45.624Z,99579.16
2023-03-17T15:31:50.054Z,99581.44
2023-03-17T15:35:53.163Z,99582.28
2023-03-17T15:39:56.911Z,99569.16
2023-03-17T15:43:59.910Z,99568.56
2023-03-17T15:48:04.603Z,99562.56
2023-03-17T15:52:15.558Z,99565.66
2023-03-17T15:56:20.940Z,99572.66
2023-03-17T16:00:26.744Z,99567.19
2023-03-17T16:04:31.262Z,99570.53
2023-03-17T16:08:35.017Z,99569.50
2023-03-17T16:12:38.189Z,99572.03
2023-03-17T16:16:45.925Z,99583.13
2023-03-17T16:20:52.173Z,99582.00
2023-03-17T16:24:55.473Z,99580.63
2023-03-17T16:28:58.704Z,99582.31
2023-03-17T16:33:05.508Z,99602.47
2023-03-17T16:37:14.089Z,99600.81
2023-03-17T16:41:20.563Z,99625.91
2023-03-17T16:45:28.133Z,99618.94
2023-03-17T16:49:31.122Z,99633.00
2023-03-17T16:53:35.946Z,99620.28
2023-03-17T16:57:40.121Z,99630.69
2023-03-17T17:01:43.535Z,99655.50
2023-03-17T17:05:46.814Z,99662.63
2023-03-17T17:09:51.240Z,99666.44
2023-03-17T17:13:54.267Z,99654.28
2023-03-17T17:18:00.632Z,99649.25
2023-03-17T17:22:03.698Z,99637.63
2023-03-17T17:26:08.382Z,99648.91
2023-03-17T17:30:14.811Z,99661.28
2023-03-17T17:34:17.780Z,99660.69
2023-03-17T17:38:23.843Z,99654.06
2023-03-17T17:42:28.321Z,99657.84
2023-03-17T17:46:31.369Z,99678.41
2023-03-17T17:50:34.790Z,99683.00
2023-03-17T17:54:38.599Z,99700.53
2023-03-17T17:58:43.735Z,99710.38
2023-03-17T18:02:46.912Z,99711.28
2023-03-17T18:06:50.469Z,99724.28
2023-03-17T18:10:55.744Z,99716.88
2023-03-17T18:15:00.189Z,99718.88
2023-03-17T18:19:03.638Z,99707.72
2023-03-17T18:23:06.981Z,99704.47
2023-03-17T18:27:10.087Z,99705.56
2023-03-17T18:31:19.084Z,99706.59
2023-03-17T18:35:27.381Z,99714.09
2023-03-17T18:39:30.771Z,99706.06
2023-03-17T18:43:34.279Z,99713.31
2023-03-17T18:47:39.158Z,99716.19
2023-03-17T18:51:42.486Z,99708.84
2023-03-17T18:55:45.641Z,99710.13
2023-03-17T18:59:48.861Z,99706.72
2023-03-17T19:03:53.721Z,99720.09
2023-03-17T19:07:57.123Z,99718.88
2023-03-17T19:12:07.636Z,99713.03
2023-03-17T19:16:11.292Z,99717.38
2023-03-17T19:20:16.317Z,99701.22
2023-03-17T19:24:19.319Z,99710.03
2023-03-17T19:28:22.725Z,99703.94
2023-03-17T19:32:25.815Z,99698.25
2023-03-17T19:36:36.636Z,99696.34
2023-03-17T19:40:40.468Z,99709.81
2023-03-17T19:44:43.738Z,99718.56
2023-03-17T19:48:46.768Z,99722.00
2023-03-17T19:52:53.102Z,99720.53
2023-03-17T19:56:56.486Z,99726.69
2023-03-17T20:00:59.613Z,99716.72
2023-03-17T20:05:02.829Z,99720.84
2023-03-17T20:09:08.841Z,99722.94
2023-03-17T20:13:12.436Z,99727.38
2023-03-17T20:17:17.418Z,99731.50
2023-03-17T20:21:20.588Z,99738.50
2023-03-17T20:25:24.946Z,99740.31
2023-03-17T20:29:28.454Z,99732.28
2023-03-17T20:33:32.247Z,99745.03
2023-03-17T20:37:35.584Z,99744.78
2023-03-17T20:41:39.992Z,99741.84
2023-03-17T20:45:43.293Z,99751.91
2023-03-17T20:49:47.645Z,99744.22
2023-03-17T20:53:51.101Z,99757.47
2023-03-17T20:57:58.717Z,99747.53
2023-03-17T21:02:04.993Z,99752.81
2023-03-17T21:06:08.088Z,99743.94
2023-03-17T21:10:13.415Z,99753.56
2023-03-17T21:14:17.818Z,99746.22
2023-03-17T21:18:21.118Z,99746.13
2023-03-17T21:22:24.381Z,99736.47
2023-03-17T21:26:29.158Z,99741.91
2023-03-17T21:30:34.289Z,99742.41
2023-03-17T21:34:38.071Z,99738.25
2023-03-17T21:38:41.940Z,99730.59
2023-03-17T21:42:45.922Z,99729.59
2023-03-17T21:46:50.970Z,99734.78
2023-03-17T21:50:54.404Z,99733.28
2023-03-17T21:54:57.648Z,99737.31
2023-03-17T21:59:00.828Z,99739.66
2023-03-17T22:03:05.375Z,99745.16
2023-03-17T22:07:08.595Z,99752.84
2023-03-17T22:11:14.610Z,99747.50
2023-03-17T22:15:17.821Z,99760.66
2023-03-17T22:19:22.541Z,99768.19
2023-03-17T22:23:25.855Z,99755.16
2023-03-17T22:27:28.884Z,99763.19
2023-03-17T22:31:32.533Z,99767.00
2023-03-17T22:35:38.006Z,99773.59
2023-03-17T22:39:41.465Z,99778.00
2023-03-17T22:43:45.005Z,99782.16
2023-03-17T22:47:48.284Z,99782.16
2023-03-17T22:51:52.761Z,99789.00
2023-03-17T22:55:56.363Z,99792.25
2023-03-17T22:59:59.649Z,99791.66
2023-03-17T23:04:02.804Z,99783.91
2023-03-17T23:08:07.213Z,99786.81
2023-03-17T23:12:11.606Z,99781.50
2023-03-17T23:16:14.961Z,99783.81
2023-03-17T23:20:19.368Z,99780.66
2023-03-17T23:24:23.790Z,99790.72
2023-03-17T23:28:27.037Z,99793.59
2023-03-17T23:32:30.054Z,99802.84
2023-03-17T23:36:34.215Z,99802.25
2023-03-17T23:40:39.723Z,99794.84
2023-03-17T23:44:42.882Z,99808.50
2023-03-17T23:48:46.194Z,99806.50
2023-03-17T23:52:49.429Z,99805.50
2023-03-17T23:56:54.244Z,99806.59
